sensor_id;sensor_type;location;lat;lon;timestamp;pressure;altitude;pressure_sealevel;temperature;humidity
40155;BME280;25875;48.202;16.334;2022-12-10T00:01:58;97626.69;;;2.09;83.14
40155;BME280;25875;48.202;16.334;2022-12-10T00:04:25;97777.31;;;3.01;83.19
40155;BME280;25875;48.202;16.334;2022-12-10T00:06:52;97777.31;;;3.01;83.12
40155;BME280;25875;48.202;16.334;2022-12-10T00:09:20;97778.16;;;3.02;83.08
40155;BME280;25875;48.202;16.334;2022-12-10T00:11:47;97786.84;;;3.02;83.09
40155;BME280;25875;48.202;16.334;2022-12-10T00:14:14;97786.00;;;3.02;83.00
40155;BME280;25875;48.202;16.334;2022-12-10T00:16:42;97783.47;;;3.00;83.08
40155;BME280;25875;48.202;16.334;2022-12-10T00:19:09;97772.91;;;3.02;83.04
40155;BME280;25875;48.202;16.334;2022-12-10T00:21:37;97788.53;;;3.03;82.97
40155;BME280;25875;48.202;16.334;2022-12-10T00:24:04;97778.22;;;3.00;82.93
40155;BME280;25875;48.202;16.334;2022-12-10T00:26:32;97773.16;;;2.97;82.77
40155;BME280;25875;48.202;16.334;2022-12-10T00:29:02;97753.34;;;2.74;82.69
40155;BME280;25875;48.202;16.334;2022-12-10T00:31:30;97791.53;;;2.96;82.90
40155;BME280;25875;48.202;16.334;2022-12-10T00:34:00;97762.75;;;2.78;83.22
40155;BME280;25875;48.202;16.334;2022-12-10T00:36:29;97781.91;;;2.96;82.87
40155;BME280;25875;48.202;16.334;2022-12-10T00:38:57;97797.69;;;2.95;82.75
40155;BME280;25875;48.202;16.334;2022-12-10T00:41:23;97786.38;;;2.94;83.06
40155;BME280;25875;48.202;16.334;2022-12-10T00:43:50;97793.31;;;2.95;82.95
40155;BME280;25875;48.202;16.334;2022-12-10T00:46:17;97758.59;;;2.74;82.92
40155;BME280;25875;48.202;16.334;2022-12-10T00:48:45;97728.16;;;2.54;82.75
40155;BME280;25875;48.202;16.334;2022-12-10T00:51:15;97808.16;;;2.95;82.86
40155;BME280;25875;48.202;16.334;2022-12-10T00:53:43;97813.25;;;2.98;82.95
40155;BME280;25875;48.202;16.334;2022-12-10T00:56:11;97817.63;;;2.97;82.63
40155;BME280;25875;48.202;16.334;2022-12-10T00:58:39;97834.25;;;2.96;82.77
40155;BME280;25875;48.202;16.334;2022-12-10T01:01:10;97807.13;;;2.80;82.58
40155;BME280;25875;48.202;16.334;2022-12-10T01:03:38;97836.03;;;2.96;82.46
40155;BME280;25875;48.202;16.334;2022-12-10T01:06:14;97829.94;;;2.95;82.62
40155;BME280;25875;48.202;16.334;2022-12-10T01:08:42;97816.78;;;2.97;82.62
40155;BME280;25875;48.202;16.334;2022-12-10T01:11:09;97815.94;;;2.96;82.56
40155;BME280;25875;48.202;16.334;2022-12-10T01:13:37;97576.25;;;-0.70;82.00
40155;BME280;25875;48.202;16.334;2022-12-10T01:16:05;97815.16;;;2.94;82.55
40155;BME280;25875;48.202;16.334;2022-12-10T01:18:33;97762.09;;;2.56;82.54
40155;BME280;25875;48.202;16.334;2022-12-10T01:21:01;97820.47;;;2.93;82.59
40155;BME280;25875;48.202;16.334;2022-12-10T01:23:31;97824.00;;;2.92;82.55
40155;BME280;25875;48.202;16.334;2022-12-10T01:25:59;97817.00;;;2.92;82.24
40155;BME280;25875;48.202;16.334;2022-12-10T01:28:28;97804.06;;;2.89;82.42
40155;BME280;25875;48.202;16.334;2022-12-10T01:30:55;97801.38;;;2.91;82.43
40155;BME280;25875;48.202;16.334;2022-12-10T01:33:25;97801.38;;;2.91;82.46
40155;BME280;25875;48.202;16.334;2022-12-10T01:35:52;97804.84;;;2.91;82.38
40155;BME280;25875;48.202;16.334;2022-12-10T01:38:19;97814.41;;;2.92;82.64
40155;BME280;25875;48.202;16.334;2022-12-10T01:40:47;97815.31;;;2.91;82.26
40155;BME280;25875;48.202;16.334;2022-12-10T01:43:14;97823.09;;;2.93;82.33
40155;BME280;25875;48.202;16.334;2022-12-10T01:45:41;97815.16;;;2.94;82.29
40155;BME280;25875;48.202;16.334;2022-12-10T01:48:08;97818.78;;;2.92;82.14
40155;BME280;25875;48.202;16.334;2022-12-10T01:50:35;97823.09;;;2.93;82.17
40155;BME280;25875;48.202;16.334;2022-12-10T01:53:02;97832.63;;;2.94;82.23
40155;BME280;25875;48.202;16.334;2022-12-10T01:55:52;97820.41;;;2.94;82.01
40155;BME280;25875;48.202;16.334;2022-12-10T01:58:19;97823.09;;;2.93;82.14
40155;BME280;25875;48.202;16.334;2022-12-10T02:00:58;97803.75;;;2.78;82.00
40155;BME280;25875;48.202;16.334;2022-12-10T02:03:36;97844.03;;;2.93;82.12
40155;BME280;25875;48.202;16.334;2022-12-10T02:06:15;97809.44;;;2.69;81.93
40155;BME280;25875;48.202;16.334;2022-12-10T02:08:53;97851.88;;;2.93;81.97
40155;BME280;25875;48.202;16.334;2022-12-10T02:11:29;97841.41;;;2.93;81.81
40155;BME280;25875;48.202;16.334;2022-12-10T02:14:00;97848.41;;;2.92;81.90
40155;BME280;25875;48.202;16.334;2022-12-10T02:16:33;97843.19;;;2.92;81.79
40155;BME280;25875;48.202;16.334;2022-12-10T02:19:07;97843.25;;;2.91;81.69
40155;BME280;25875;48.202;16.334;2022-12-10T02:21:41;97845.88;;;2.91;81.63
40155;BME280;25875;48.202;16.334;2022-12-10T02:24:12;97852.88;;;2.90;81.66
40155;BME280;25875;48.202;16.334;2022-12-10T02:26:44;97808.50;;;2.70;81.65
40155;BME280;25875;48.202;16.334;2022-12-10T02:29:16;97826.09;;;2.85;81.62
40155;BME280;25875;48.202;16.334;2022-12-10T02:31:46;97819.94;;;2.86;81.62
40155;BME280;25875;48.202;16.334;2022-12-10T02:34:16;97824.25;;;2.87;81.82
40155;BME280;25875;48.202;16.334;2022-12-10T02:36:46;97645.56;;;1.78;81.50
40155;BME280;25875;48.202;16.334;2022-12-10T02:39:18;97838.25;;;2.86;81.41
40155;BME280;25875;48.202;16.334;2022-12-10T02:41:50;97833.94;;;2.85;81.38
40155;BME280;25875;48.202;16.334;2022-12-10T02:44:20;97843.56;;;2.84;81.32
40155;BME280;25875;48.202;16.334;2022-12-10T02:46:51;97845.31;;;2.84;81.42
40155;BME280;25875;48.202;16.334;2022-12-10T02:49:19;97844.47;;;2.83;81.33
40155;BME280;25875;48.202;16.334;2022-12-10T02:51:46;97862.72;;;2.85;81.31
40155;BME280;25875;48.202;16.334;2022-12-10T02:54:39;97865.34;;;2.85;81.00
40155;BME280;25875;48.202;16.334;2022-12-10T02:57:14;97822.09;;;2.59;81.13
40155;BME280;25875;48.202;16.334;2022-12-10T02:59:56;97845.06;;;2.71;80.85
40155;BME280;25875;48.202;16.334;2022-12-10T03:02:31;97820.31;;;2.60;81.14
40155;BME280;25875;48.202;16.334;2022-12-10T03:05:02;97833.25;;;2.63;81.10
40155;BME280;25875;48.202;16.334;2022-12-10T03:07:35;97762.63;;;2.27;81.04
40155;BME280;25875;48.202;16.334;2022-12-10T03:10:11;97849.00;;;2.80;80.96
40155;BME280;25875;48.202;16.334;2022-12-10T03:12:43;97775.06;;;2.40;80.67
40155;BME280;25875;48.202;16.334;2022-12-10T03:15:14;97844.53;;;2.82;81.16
40155;BME280;25875;48.202;16.334;2022-12-10T03:17:43;97836.69;;;2.82;81.05
40155;BME280;25875;48.202;16.334;2022-12-10T03:20:14;97840.09;;;2.84;81.05
40155;BME280;25875;48.202;16.334;2022-12-10T03:22:44;97847.16;;;2.82;80.84
40155;BME280;25875;48.202;16.334;2022-12-10T03:25:15;97845.41;;;2.82;80.75
40155;BME280;25875;48.202;16.334;2022-12-10T03:27:45;97838.38;;;2.83;80.89
40155;BME280;25875;48.202;16.334;2022-12-10T03:30:17;97845.41;;;2.82;80.79
40155;BME280;25875;48.202;16.334;2022-12-10T03:32:44;97841.16;;;2.80;80.78
40155;BME280;25875;48.202;16.334;2022-12-10T03:35:12;97850.63;;;2.82;80.78
40155;BME280;25875;48.202;16.334;2022-12-10T03:37:41;97848.84;;;2.83;80.86
40155;BME280;25875;48.202;16.334;2022-12-10T03:40:09;97838.31;;;2.84;80.78
40155;BME280;25875;48.202;16.334;2022-12-10T03:42:37;97848.78;;;2.84;80.76
40155;BME280;25875;48.202;16.334;2022-12-10T03:45:05;97855.72;;;2.85;80.80
40155;BME280;25875;48.202;16.334;2022-12-10T03:47:34;97871.41;;;2.85;80.79
40155;BME280;25875;48.202;16.334;2022-12-10T03:50:01;97871.41;;;2.85;80.73
40155;BME280;25875;48.202;16.334;2022-12-10T03:52:27;97875.78;;;2.85;80.68
40155;BME280;25875;48.202;16.334;2022-12-10T03:54:54;97853.06;;;2.68;80.53
40155;BME280;25875;48.202;16.334;2022-12-10T03:57:21;97887.03;;;2.87;80.56
40155;BME280;25875;48.202;16.334;2022-12-10T03:59:47;97873.00;;;2.71;80.62
40155;BME280;25875;48.202;16.334;2022-12-10T04:02:14;97904.44;;;2.88;80.46
40155;BME280;25875;48.202;16.334;2022-12-10T04:04:42;97833.34;;;2.42;80.46
40155;BME280;25875;48.202;16.334;2022-12-10T04:07:09;97912.34;;;2.86;80.57
40155;BME280;25875;48.202;16.334;2022-12-10T04:09:36;97920.13;;;2.88;80.71
40155;BME280;25875;48.202;16.334;2022-12-10T04:12:03;97734.25;;;1.81;80.24
40155;BME280;25875;48.202;16.334;2022-12-10T04:14:30;97916.47;;;2.92;80.31
40155;BME280;25875;48.202;16.334;2022-12-10T04:17:11;97913.97;;;2.89;80.35
40155;BME280;25875;48.202;16.334;2022-12-10T04:19:37;97837.09;;;2.37;80.27
40155;BME280;25875;48.202;16.334;2022-12-10T04:22:06;97915.75;;;2.88;80.22
40155;BME280;25875;48.202;16.334;2022-12-10T04:24:50;97913.13;;;2.88;80.31
40155;BME280;25875;48.202;16.334;2022-12-10T04:27:36;97824.22;;;2.13;80.41
40155;BME280;25875;48.202;16.334;2022-12-10T04:30:04;97912.34;;;2.86;80.48
40155;BME280;25875;48.202;16.334;2022-12-10T04:32:31;97917.66;;;2.85;80.43
40155;BME280;25875;48.202;16.334;2022-12-10T04:34:58;97925.50;;;2.85;80.37
40155;BME280;25875;48.202;16.334;2022-12-10T04:37:27;97920.22;;;2.86;80.41
40155;BME280;25875;48.202;16.334;2022-12-10T04:39:54;97919.38;;;2.86;80.31
40155;BME280;25875;48.202;16.334;2022-12-10T04:42:21;97913.28;;;2.85;80.27
40155;BME280;25875;48.202;16.334;2022-12-10T04:44:48;97914.06;;;2.87;80.30
40155;BME280;25875;48.202;16.334;2022-12-10T04:47:15;97926.28;;;2.87;80.25
40155;BME280;25875;48.202;16.334;2022-12-10T04:49:42;97911.50;;;2.86;80.22
40155;BME280;25875;48.202;16.334;2022-12-10T04:52:11;97879.13;;;2.70;80.25
40155;BME280;25875;48.202;16.334;2022-12-10T04:54:40;97815.41;;;2.35;80.35
40155;BME280;25875;48.202;16.334;2022-12-10T04:57:08;97902.75;;;2.87;80.34
40155;BME280;25875;48.202;16.334;2022-12-10T04:59:35;97868.59;;;2.71;80.19
40155;BME280;25875;48.202;16.334;2022-12-10T05:02:02;97907.06;;;2.88;80.47
40155;BME280;25875;48.202;16.334;2022-12-10T05:04:29;97900.97;;;2.87;80.33
40155;BME280;25875;48.202;16.334;2022-12-10T05:06:55;97905.22;;;2.90;80.37
40155;BME280;25875;48.202;16.334;2022-12-10T05:09:22;97912.34;;;2.86;80.18
40155;BME280;25875;48.202;16.334;2022-12-10T05:11:50;97910.50;;;2.88;80.17
40155;BME280;25875;48.202;16.334;2022-12-10T05:14:17;97898.28;;;2.89;80.27
40155;BME280;25875;48.202;16.334;2022-12-10T05:16:43;97905.13;;;2.92;80.11
40155;BME280;25875;48.202;16.334;2022-12-10T05:19:10;97891.22;;;2.91;80.20
40155;BME280;25875;48.202;16.334;2022-12-10T05:21:37;97878.63;;;2.80;80.13
40155;BME280;25875;48.202;16.334;2022-12-10T05:24:21;97909.53;;;2.91;80.05
40155;BME280;25875;48.202;16.334;2022-12-10T05:26:50;97900.75;;;2.92;80.03
40155;BME280;25875;48.202;16.334;2022-12-10T05:29:17;97907.69;;;2.93;79.94
40155;BME280;25875;48.202;16.334;2022-12-10T05:31:43;97898.06;;;2.94;80.06
40155;BME280;25875;48.202;16.334;2022-12-10T05:34:10;97905.00;;;2.95;79.89
40155;BME280;25875;48.202;16.334;2022-12-10T05:36:37;97891.06;;;2.94;79.85
40155;BME280;25875;48.202;16.334;2022-12-10T05:39:04;97893.59;;;2.96;79.87
40155;BME280;25875;48.202;16.334;2022-12-10T05:41:34;97901.47;;;2.96;79.82
40155;BME280;25875;48.202;16.334;2022-12-10T05:44:03;97903.16;;;2.97;79.74
40155;BME280;25875;48.202;16.334;2022-12-10T05:46:31;97910.94;;;2.98;79.73
40155;BME280;25875;48.202;16.334;2022-12-10T05:48:59;97841.13;;;2.44;79.76
40155;BME280;25875;48.202;16.334;2022-12-10T05:51:29;97911.78;;;2.99;79.88
40155;BME280;25875;48.202;16.334;2022-12-10T05:53:57;97916.16;;;2.98;79.77
40155;BME280;25875;48.202;16.334;2022-12-10T05:56:25;97916.09;;;3.00;79.75
40155;BME280;25875;48.202;16.334;2022-12-10T05:58:54;97909.16;;;2.99;79.57
40155;BME280;25875;48.202;16.334;2022-12-10T06:01:25;97917.09;;;2.97;79.45
40155;BME280;25875;48.202;16.334;2022-12-10T06:03:52;97917.94;;;2.98;79.66
40155;BME280;25875;48.202;16.334;2022-12-10T06:06:21;97897.88;;;2.79;79.37
40155;BME280;25875;48.202;16.334;2022-12-10T06:08:48;97930.16;;;2.97;79.63
40155;BME280;25875;48.202;16.334;2022-12-10T06:11:15;97941.56;;;2.96;79.49
40155;BME280;25875;48.202;16.334;2022-12-10T06:13:42;97911.72;;;2.81;79.77
40155;BME280;25875;48.202;16.334;2022-12-10T06:16:09;97948.50;;;2.97;79.46
40155;BME280;25875;48.202;16.334;2022-12-10T06:18:38;97953.78;;;2.96;79.38
40155;BME280;25875;48.202;16.334;2022-12-10T06:21:06;97950.34;;;2.95;79.31
40155;BME280;25875;48.202;16.334;2022-12-10T06:23:33;97952.94;;;2.95;79.34
40155;BME280;25875;48.202;16.334;2022-12-10T06:26:03;97944.25;;;2.95;79.36
40155;BME280;25875;48.202;16.334;2022-12-10T06:28:30;97946.03;;;2.94;79.34
40155;BME280;25875;48.202;16.334;2022-12-10T06:30:57;97952.16;;;2.93;79.19
40155;BME280;25875;48.202;16.334;2022-12-10T06:33:24;97928.63;;;2.74;79.23
40155;BME280;25875;48.202;16.334;2022-12-10T06:35:53;97968.78;;;2.92;79.20
40155;BME280;25875;48.202;16.334;2022-12-10T06:38:19;97974.09;;;2.91;79.25
40155;BME280;25875;48.202;16.334;2022-12-10T06:40:46;97985.34;;;2.93;79.20
40155;BME280;25875;48.202;16.334;2022-12-10T06:43:13;97947.94;;;2.72;79.22
40155;BME280;25875;48.202;16.334;2022-12-10T06:45:40;97980.19;;;2.91;79.01
40155;BME280;25875;48.202;16.334;2022-12-10T06:48:07;97983.78;;;2.88;78.94
40155;BME280;25875;48.202;16.334;2022-12-10T06:50:35;97965.47;;;2.88;79.06
40155;BME280;25875;48.202;16.334;2022-12-10T06:53:03;97962.78;;;2.90;79.11
40155;BME280;25875;48.202;16.334;2022-12-10T06:55:30;97969.00;;;2.87;78.84
40155;BME280;25875;48.202;16.334;2022-12-10T06:57:57;97976.00;;;2.87;78.92
40155;BME280;25875;48.202;16.334;2022-12-10T07:00:24;97970.78;;;2.87;78.87
40155;BME280;25875;48.202;16.334;2022-12-10T07:02:50;97963.78;;;2.87;78.79
40155;BME280;25875;48.202;16.334;2022-12-10T07:05:17;97960.31;;;2.87;78.65
40155;BME280;25875;48.202;16.334;2022-12-10T07:07:44;97956.84;;;2.86;78.75
40155;BME280;25875;48.202;16.334;2022-12-10T07:10:12;97958.53;;;2.87;78.86
40155;BME280;25875;48.202;16.334;2022-12-10T07:12:39;97960.31;;;2.87;78.85
40155;BME280;25875;48.202;16.334;2022-12-10T07:15:07;97866.03;;;2.13;79.02
40155;BME280;25875;48.202;16.334;2022-12-10T07:17:34;97968.22;;;2.85;78.92
40155;BME280;25875;48.202;16.334;2022-12-10T07:20:00;97963.69;;;2.89;79.05
40155;BME280;25875;48.202;16.334;2022-12-10T07:22:27;97968.00;;;2.90;78.97
40155;BME280;25875;48.202;16.334;2022-12-10T07:24:54;97966.25;;;2.91;78.92
40155;BME280;25875;48.202;16.334;2022-12-10T07:27:22;97963.69;;;2.89;78.76
40155;BME280;25875;48.202;16.334;2022-12-10T07:29:49;97953.31;;;2.87;78.73
40155;BME280;25875;48.202;16.334;2022-12-10T07:32:16;97945.31;;;2.91;78.78
40155;BME280;25875;48.202;16.334;2022-12-10T07:34:43;97947.09;;;2.90;78.84
40155;BME280;25875;48.202;16.334;2022-12-10T07:37:09;97936.53;;;2.92;78.53
40155;BME280;25875;48.202;16.334;2022-12-10T07:39:36;97940.00;;;2.92;78.48
40155;BME280;25875;48.202;16.334;2022-12-10T07:42:03;97938.25;;;2.93;78.68
40155;BME280;25875;48.202;16.334;2022-12-10T07:44:31;97940.09;;;2.91;78.64
40155;BME280;25875;48.202;16.334;2022-12-10T07:46:58;97938.31;;;2.91;78.67
40155;BME280;25875;48.202;16.334;2022-12-10T07:49:24;97928.63;;;2.93;78.71
40155;BME280;25875;48.202;16.334;2022-12-10T07:51:51;97926.84;;;2.94;78.63
40155;BME280;25875;48.202;16.334;2022-12-10T07:54:18;97920.78;;;2.93;78.51
40155;BME280;25875;48.202;16.334;2022-12-10T07:56:45;97919.91;;;2.93;78.58
40155;BME280;25875;48.202;16.334;2022-12-10T07:59:12;97905.44;;;2.85;78.37
40155;BME280;25875;48.202;16.334;2022-12-10T08:01:40;97919.00;;;2.94;78.38
40155;BME280;25875;48.202;16.334;2022-12-10T08:04:07;97928.63;;;2.93;78.15
40155;BME280;25875;48.202;16.334;2022-12-10T08:06:34;97931.22;;;2.93;78.30
40155;BME280;25875;48.202;16.334;2022-12-10T08:09:01;97936.47;;;2.93;78.45
40155;BME280;25875;48.202;16.334;2022-12-10T08:11:28;97948.56;;;2.96;78.50
40155;BME280;25875;48.202;16.334;2022-12-10T08:13:55;97282.94;;;-1.27;78.08
40155;BME280;25875;48.202;16.334;2022-12-10T08:16:24;97943.34;;;2.96;78.32
40155;BME280;25875;48.202;16.334;2022-12-10T08:18:54;97943.41;;;2.94;78.18
40155;BME280;25875;48.202;16.334;2022-12-10T08:21:22;97901.75;;;2.71;78.18
40155;BME280;25875;48.202;16.334;2022-12-10T08:23:49;97943.41;;;2.94;78.32
40155;BME280;25875;48.202;16.334;2022-12-10T08:26:18;97939.88;;;2.95;78.33
40155;BME280;25875;48.202;16.334;2022-12-10T08:28:46;97939.88;;;2.95;78.18
40155;BME280;25875;48.202;16.334;2022-12-10T08:31:14;97940.72;;;2.96;78.30
40155;BME280;25875;48.202;16.334;2022-12-10T08:33:42;97946.72;;;2.98;78.34
40155;BME280;25875;48.202;16.334;2022-12-10T08:36:12;97944.09;;;2.98;78.17
40155;BME280;25875;48.202;16.334;2022-12-10T08:38:40;97949.19;;;3.01;78.28
40155;BME280;25875;48.202;16.334;2022-12-10T08:41:08;97903.75;;;2.66;77.93
40155;BME280;25875;48.202;16.334;2022-12-10T08:43:35;97951.88;;;2.99;78.34
40155;BME280;25875;48.202;16.334;2022-12-10T08:46:03;97830.53;;;2.28;78.11
40155;BME280;25875;48.202;16.334;2022-12-10T08:48:30;97951.88;;;2.99;78.37
40155;BME280;25875;48.202;16.334;2022-12-10T08:50:57;97943.13;;;3.00;78.28
40155;BME280;25875;48.202;16.334;2022-12-10T08:53:25;97945.66;;;3.02;78.30
40155;BME280;25875;48.202;16.334;2022-12-10T08:55:52;97909.25;;;2.78;78.15
40155;BME280;25875;48.202;16.334;2022-12-10T08:58:19;97958.69;;;3.03;78.05
40155;BME280;25875;48.202;16.334;2022-12-10T09:00:47;97958.59;;;3.05;78.22
40155;BME280;25875;48.202;16.334;2022-12-10T09:03:14;97965.53;;;3.06;78.01
40155;BME280;25875;48.202;16.334;2022-12-10T09:05:41;97921.06;;;2.87;77.89
40155;BME280;25875;48.202;16.334;2022-12-10T09:08:08;97963.75;;;3.06;77.96
40155;BME280;25875;48.202;16.334;2022-12-10T09:10:37;97896.47;;;2.53;77.83
40155;BME280;25875;48.202;16.334;2022-12-10T09:13:04;97961.06;;;3.08;77.78
40155;BME280;25875;48.202;16.334;2022-12-10T09:15:31;97968.84;;;3.09;77.82
40155;BME280;25875;48.202;16.334;2022-12-10T09:17:57;97971.41;;;3.11;77.83
40155;BME280;25875;48.202;16.334;2022-12-10T09:20:24;97970.41;;;3.13;77.76
40155;BME280;25875;48.202;16.334;2022-12-10T09:22:52;97975.56;;;3.15;77.66
40155;BME280;25875;48.202;16.334;2022-12-10T09:25:19;97977.28;;;3.16;77.67
40155;BME280;25875;48.202;16.334;2022-12-10T09:27:48;97965.94;;;3.15;77.53
40155;BME280;25875;48.202;16.334;2022-12-10T09:30:15;97957.25;;;3.15;77.27
40155;BME280;25875;48.202;16.334;2022-12-10T09:32:42;97947.63;;;3.15;77.33
40155;BME280;25875;48.202;16.334;2022-12-10T09:35:09;97875.53;;;2.72;77.21
40155;BME280;25875;48.202;16.334;2022-12-10T09:37:35;97947.69;;;3.14;77.40
40155;BME280;25875;48.202;16.334;2022-12-10T09:40:03;97950.31;;;3.14;76.93
40155;BME280;25875;48.202;16.334;2022-12-10T09:42:36;97938.28;;;3.10;76.84
40155;BME280;25875;48.202;16.334;2022-12-10T09:45:14;97948.63;;;3.13;76.85
40155;BME280;25875;48.202;16.334;2022-12-10T09:47:49;97863.09;;;2.59;76.96
40155;BME280;25875;48.202;16.334;2022-12-10T09:50:23;97956.25;;;3.17;76.96
40155;BME280;25875;48.202;16.334;2022-12-10T09:52:53;97966.66;;;3.19;76.94
40155;BME280;25875;48.202;16.334;2022-12-10T09:55:31;97959.78;;;3.16;76.72
40155;BME280;25875;48.202;16.334;2022-12-10T09:57:59;97976.34;;;3.17;76.79
40155;BME280;25875;48.202;16.334;2022-12-10T10:00:34;97971.13;;;3.17;76.49
40155;BME280;25875;48.202;16.334;2022-12-10T10:03:02;97947.13;;;3.07;76.84
40155;BME280;25875;48.202;16.334;2022-12-10T10:05:31;97973.59;;;3.20;76.72
40155;BME280;25875;48.202;16.334;2022-12-10T10:08:01;97965.66;;;3.22;76.72
40155;BME280;25875;48.202;16.334;2022-12-10T10:10:30;97951.66;;;3.23;76.82
40155;BME280;25875;48.202;16.334;2022-12-10T10:13:00;97919.41;;;3.03;76.63
40155;BME280;25875;48.202;16.334;2022-12-10T10:15:32;97951.66;;;3.23;76.71
40155;BME280;25875;48.202;16.334;2022-12-10T10:18:02;97927.75;;;3.11;76.90
40155;BME280;25875;48.202;16.334;2022-12-10T10:20:31;97948.03;;;3.25;76.93
40155;BME280;25875;48.202;16.334;2022-12-10T10:22:59;97831.63;;;2.60;76.81
40155;BME280;25875;48.202;16.334;2022-12-10T10:25:26;97940.03;;;3.28;76.87
40155;BME280;25875;48.202;16.334;2022-12-10T10:27:54;97944.34;;;3.29;76.82
40155;BME280;25875;48.202;16.334;2022-12-10T10:30:22;97940.81;;;3.30;76.82
40155;BME280;25875;48.202;16.334;2022-12-10T10:32:52;97941.66;;;3.31;76.62
40155;BME280;25875;48.202;16.334;2022-12-10T10:35:23;97888.00;;;3.03;76.62
40155;BME280;25875;48.202;16.334;2022-12-10T10:37:52;97937.25;;;3.31;76.66
40155;BME280;25875;48.202;16.334;2022-12-10T10:40:25;97934.56;;;3.33;76.57
40155;BME280;25875;48.202;16.334;2022-12-10T10:42:54;97925.72;;;3.35;77.01
40155;BME280;25875;48.202;16.334;2022-12-10T10:45:39;97930.03;;;3.36;76.08
40155;BME280;25875;48.202;16.334;2022-12-10T10:48:13;97930.97;;;3.35;76.37
40155;BME280;25875;48.202;16.334;2022-12-10T10:50:41;97908.84;;;3.24;76.53
40155;BME280;25875;48.202;16.334;2022-12-10T10:53:23;97928.19;;;3.38;75.97
40155;BME280;25875;48.202;16.334;2022-12-10T10:55:50;97926.34;;;3.40;76.37
40155;BME280;25875;48.202;16.334;2022-12-10T10:58:19;97921.88;;;3.42;76.46
40155;BME280;25875;48.202;16.334;2022-12-10T11:00:54;97915.78;;;3.42;75.97
40155;BME280;25875;48.202;16.334;2022-12-10T11:03:23;97906.09;;;3.44;76.29
40155;BME280;25875;48.202;16.334;2022-12-10T11:05:50;97899.84;;;3.46;76.15
40155;BME280;25875;48.202;16.334;2022-12-10T11:08:18;97893.59;;;3.49;76.32
40155;BME280;25875;48.202;16.334;2022-12-10T11:10:51;97892.75;;;3.48;75.84
40155;BME280;25875;48.202;16.334;2022-12-10T11:13:21;97888.28;;;3.50;75.89
40155;BME280;25875;48.202;16.334;2022-12-10T11:15:55;97851.06;;;3.27;75.58
40155;BME280;25875;48.202;16.334;2022-12-10T11:18:26;97853.09;;;3.39;75.67
40155;BME280;25875;48.202;16.334;2022-12-10T11:20:59;97886.22;;;3.57;75.69
40155;BME280;25875;48.202;16.334;2022-12-10T11:23:28;97890.47;;;3.60;75.91
40155;BME280;25875;48.202;16.334;2022-12-10T11:26:01;97879.06;;;3.61;75.49
40155;BME280;25875;48.202;16.334;2022-12-10T11:28:39;97870.19;;;3.63;75.31
40155;BME280;25875;48.202;16.334;2022-12-10T11:31:24;97864.94;;;3.63;74.98
40155;BME280;25875;48.202;16.334;2022-12-10T11:34:00;97866.72;;;3.63;75.23
40155;BME280;25875;48.202;16.334;2022-12-10T11:36:38;97825.19;;;3.38;74.86
40155;BME280;25875;48.202;16.334;2022-12-10T11:39:19;97867.56;;;3.63;74.98
40155;BME280;25875;48.202;16.334;2022-12-10T11:41:49;97855.31;;;3.64;75.29
40155;BME280;25875;48.202;16.334;2022-12-10T11:44:24;97866.66;;;3.64;75.14
40155;BME280;25875;48.202;16.334;2022-12-10T11:47:08;97862.25;;;3.65;74.64
40155;BME280;25875;48.202;16.334;2022-12-10T11:49:48;97858.78;;;3.64;74.85
40155;BME280;25875;48.202;16.334;2022-12-10T11:52:39;97859.56;;;3.66;74.43
40155;BME280;25875;48.202;16.334;2022-12-10T11:55:23;97858.72;;;3.66;74.84
40155;BME280;25875;48.202;16.334;2022-12-10T11:58:03;97838.59;;;3.49;74.63
40155;BME280;25875;48.202;16.334;2022-12-10T12:00:40;97862.09;;;3.68;74.54
40155;BME280;25875;48.202;16.334;2022-12-10T12:03:29;97869.94;;;3.68;74.29
40155;BME280;25875;48.202;16.334;2022-12-10T12:06:15;97870.88;;;3.67;74.01
40155;BME280;25875;48.202;16.334;2022-12-10T12:08:52;97877.81;;;3.68;74.65
40155;BME280;25875;48.202;16.334;2022-12-10T12:11:30;97880.28;;;3.71;74.54
40155;BME280;25875;48.202;16.334;2022-12-10T12:14:06;97866.34;;;3.70;74.52
40155;BME280;25875;48.202;16.334;2022-12-10T12:16:39;97865.47;;;3.70;74.49
40155;BME280;25875;48.202;16.334;2022-12-10T12:19:12;97863.78;;;3.69;74.56
40155;BME280;25875;48.202;16.334;2022-12-10T12:21:43;97865.56;;;3.68;74.32
40155;BME280;25875;48.202;16.334;2022-12-10T12:24:16;97869.03;;;3.69;74.28
40155;BME280;25875;48.202;16.334;2022-12-10T12:26:50;97837.75;;;3.48;74.48
40155;BME280;25875;48.202;16.334;2022-12-10T12:29:22;97883.06;;;3.68;74.45
40155;BME280;25875;48.202;16.334;2022-12-10T12:31:56;97872.72;;;3.65;74.38
40155;BME280;25875;48.202;16.334;2022-12-10T12:34:29;97864.88;;;3.65;74.57
40155;BME280;25875;48.202;16.334;2022-12-10T12:37:01;97870.19;;;3.63;74.56
40155;BME280;25875;48.202;16.334;2022-12-10T12:39:34;97866.72;;;3.63;74.64
40155;BME280;25875;48.202;16.334;2022-12-10T12:42:11;97860.72;;;3.61;74.52
40155;BME280;25875;48.202;16.334;2022-12-10T12:44:49;97860.78;;;3.59;74.34
40155;BME280;25875;48.202;16.334;2022-12-10T12:47:30;97856.41;;;3.60;74.35
40155;BME280;25875;48.202;16.334;2022-12-10T12:49:59;97852.84;;;3.61;74.53
40155;BME280;25875;48.202;16.334;2022-12-10T12:52:36;97857.16;;;3.62;74.25
40155;BME280;25875;48.202;16.334;2022-12-10T12:55:14;97851.06;;;3.61;74.21
40155;BME280;25875;48.202;16.334;2022-12-10T12:57:45;97860.63;;;3.62;74.46
40155;BME280;25875;48.202;16.334;2022-12-10T13:00:16;97863.25;;;3.62;74.38
40155;BME280;25875;48.202;16.334;2022-12-10T13:02:55;97744.91;;;2.86;73.98
40155;BME280;25875;48.202;16.334;2022-12-10T13:05:28;97864.09;;;3.63;74.35
40155;BME280;25875;48.202;16.334;2022-12-10T13:08:25;97876.34;;;3.62;73.63
40155;BME280;25875;48.202;16.334;2022-12-10T13:10:58;97834.75;;;3.39;74.19
40155;BME280;25875;48.202;16.334;2022-12-10T13:13:30;97856.56;;;3.57;74.04
40155;BME280;25875;48.202;16.334;2022-12-10T13:19:16;97892.31;;;3.58;73.52